• location
  • image
mod_vvisit_countermod_vvisit_countermod_vvisit_countermod_vvisit_countermod_vvisit_countermod_vvisit_counter
mod_vvisit_counterToday56
mod_vvisit_counterYesterday1307
mod_vvisit_counterThis week6753
mod_vvisit_counterLast week5524
mod_vvisit_counterThis month19131
mod_vvisit_counterLast month22413
mod_vvisit_counterAll days849772

We have: 47 guests online
Your IP: 54.90.119.59
 , 
Today: Feb 24, 2018
Airport / Company / List of services

List of services

  

Services of Siauliai International Airport:

 

Leading (follow me)

Ground services

Aircraft loading/unloading

Aircraft parking

Aircraft security

Aircraft fuel supply

Passenger baggage service

Business class passenger service

Submission of information to passengers

Serving meals to passengers and crew

Additional services for aircraft crewmembers

Aviation Security

Dining Cafe

First medical aid

Hotel reservations

Transporting crew to/from the city

Taxi booking 

Border procedures

Customs procedures

 

Today

Saturday, 24 February 2018

Aviation Weather Forecast

[source: ADDS]
METAR
EYSA 232150Z 09012KT 7000 -SN VV019 M10/M11 Q1024 R14L/590291 R14R/490391 WHT NOSIG =
TAF
TAF COR EYSA 232006Z 2321/2406 11014KT 3000 SN BR OVC015 TEMPO 2321/2401 0800 +SN OVC003 BECMG 2402/2403 06014KT 6000 BKN005 OVC010 =
SR / SS: 05:28 / 15:53 UTC (EYSA 2018-02-24)

Search

Who's Online

We have 48 guests online

tic logo en